This is the latest recevied weather packets stored in our database for station/object N2VSB-13. If no packets are shown the sender has not sent any weather packets the latest 10 day(s).
| Time | Temp. | Humidity | Pressure | Rain* | Wind** | Luminosity | Snow |
|---|---|---|---|---|---|---|---|
| 1777658738 | 14.44° C | 40% | 1010 hPa | 0 mm | - | 746 W/m² | - |
| 1777656918 | 15° C | 44% | 1010.4 hPa | 0 mm | - | 303 W/m² | - |
| 1777644317 | 12.22° C | 55% | 1011.7 hPa | 0 mm | - | 402 W/m² | - |
| 1777643717 | 12.22° C | 58% | 1011.7 hPa | 0 mm | - | 489 W/m² | - |
| 1777640718 | 10.56° C | 67% | 1011.9 hPa | 0 mm | - | 413 W/m² | - |
| 1777638917 | 8.33° C | 71% | 1012 hPa | 0 mm | - | 287 W/m² | - |
| 1777638317 | 7.78° C | 74% | 1011.9 hPa | 0 mm | - | 229 W/m² | - |
| 1777637719 | 7.22° C | 75% | 1011.8 hPa | 0 mm | - | 101 W/m² | - |
| 1777637119 | 7.22° C | 77% | 1011.8 hPa | 0 mm | - | 88 W/m² | - |
| 1777635319 | 6.67° C | 81% | 1011.8 hPa | 0 mm | - | 100 W/m² | - |
| 1777634120 | 6.11° C | 83% | 1011.7 hPa | 0 mm | - | 66 W/m² | - |
| 1777632340 | 5.56° C | 84% | 1011.5 hPa | 0 mm | - | 48 W/m² | - |
| 1777628121 | 6.11° C | 81% | 1010.9 hPa | 0 mm | - | 0 W/m² | - |
| 1777626322 | 6.67° C | 78% | 1010.4 hPa | 0 mm | - | 0 W/m² | - |
| 1777623323 | 7.22° C | 76% | 1010.5 hPa | 0 mm | - | 0 W/m² | - |
| 1777622123 | 7.22° C | 76% | 1010.3 hPa | 0 mm | - | 0 W/m² | - |
| 1777614325 | 8.33° C | 74% | 1009.9 hPa | 0 mm | - | 0 W/m² | - |
| 1777610746 | 8.33° C | 74% | 1010.2 hPa | 0 mm | - | 0 W/m² | - |
| 1777608327 | 8.33° C | 74% | 1010 hPa | 0 mm | - | 0 W/m² | - |
| 1777605348 | 8.89° C | 75% | 1010.3 hPa | 0 mm | - | 0 W/m² | - |
| 1777604718 | 8.89° C | 75% | 1010.3 hPa | 0 mm | - | 0 W/m² | - |
| 1777602328 | 8.33° C | 74% | 1010.1 hPa | 0 mm | - | 0 W/m² | - |
| 1777601129 | 8.89° C | 74% | 1010.1 hPa | 0 mm | - | 0 W/m² | - |
| 1777596917 | 10° C | 72% | 1009.3 hPa | 0 mm | - | 0 W/m² | - |
| 1777596340 | 10° C | 72% | 1009.1 hPa | 0 mm | - | 0 W/m² | - |
* Rain latest hour (hover to see other rain measurements)
** Current wind speed in m/s (hover to see current wind gust speed)